• Join FlightAware (Why Join?)
  • Login
  • US Flag 
11:25AM EDT


 

Airport Tracker/Info


-or-


 

Live Flight TrackerFlight Track Log ✈ UPS1269 ✈ 30-Jan-2014 ✈ KGSO - KSDF

Flight Track Log - Related Links

Times and Time Zones

All times are in EST time to prevent confusion due to time zone crossing. See the UPS1269 flight status page for this flight to view local times or setup timezone preferences in your user account.

Time Position Orientation Groundspeed Altitude Reporting Facility
EST Latitude Longitude Course Direction KTS MPH feet Rate Location/Type
11:27PM 36.1789 -80.1056 296° West 263 303 9,900  Level Atlanta Center
11:28PM 36.2208 -80.1833 304° West 286 329 12,300 2,400 Climbing Atlanta Center
11:29PM 36.2658 -80.2842 299° West 312 359 14,700 2,580 Climbing Atlanta Center
11:30PM 36.4190 -80.5046 302° West  Level FlightAware Approximate
11:30PM 36.3025 -80.4011 291° West 337 388 17,500  Level Atlanta Center
11:31PM 36.4630 -80.6075 296° West  Level FlightAware Approximate
11:31PM 36.3394 -80.5231 291° West 361 415 19,700  Level Atlanta Center
11:32PM 36.3872 -80.6653 293° West 391 450 22,400 2,400 Climbing Atlanta Center
11:33PM 36.4306 -80.7953 293° West 403 464 24,500 2,160 Climbing Atlanta Center
11:34PM 36.4714 -80.9278 291° West 408 470 26,800 2,100 Climbing Atlanta Center
11:35PM 36.5367 -81.1319 292° West 405 466 30,000 1,200 Climbing Indianapolis Center
11:36PM 36.5747 -81.2594 290° West 404 465 30,000  Level Indianapolis Center
11:37PM 36.6153 -81.3872 292° West 406 467 30,000  Level Indianapolis Center
11:38PM 36.6558 -81.5156 292° West 407 468 30,000  Level Indianapolis Center
11:39PM 36.6986 -81.6533 291° West 408 470 30,000  Level Indianapolis Center
11:40PM 36.7392 -81.7856 291° West 408 470 30,000  Level Indianapolis Center
11:41PM 36.7858 -81.9394 291° West 406 467 30,000  Level Indianapolis Center
11:42PM 36.8261 -82.0722 291° West 408 470 30,000  Level Indianapolis Center
11:43PM 36.8658 -82.2044 291° West 407 468 30,000  Level Indianapolis Center
11:44PM 36.9061 -82.3372 291° West 408 470 30,000  Level Indianapolis Center
11:45PM 36.9456 -82.4683 291° West 406 467 30,000  Level Indianapolis Center
11:46PM 36.9844 -82.5997 290° West 405 466 30,000  Level Indianapolis Center
11:47PM 37.0239 -82.7314 291° West 407 468 30,000  Level Indianapolis Center
11:48PM 37.0631 -82.8631 290° West 410 472 30,000  Level Indianapolis Center
11:49PM 37.1072 -83.0158 290° West 406 467 30,000  Level Indianapolis Center
11:50PM 37.1456 -83.1469 290° West 404 465 30,000  Level Indianapolis Center
11:51PM 37.1836 -83.2783 290° West 402 463 30,000  Level Indianapolis Center
11:52PM 37.2217 -83.4106 290° West 404 465 30,000 -540 Level Indianapolis Center
11:54PM 37.2592 -83.5439 289° West 405 466 29,000 -1,620 Descending Indianapolis Center
11:55PM 37.2986 -83.6778 290° West 407 468 26,800 -2,160 Descending Indianapolis Center
11:56PM 37.3381 -83.8172 290° West 421 484 24,700 -1,980 Descending Indianapolis Center
11:57PM 37.3756 -83.9478 290° West 402 463 22,900 -1,800 Descending Indianapolis Center
11:58PM 37.4097 -84.0731 289° West 382 440 21,100 -1,740 Descending Indianapolis Center
11:59PM 37.4447 -84.1944 290° West 371 427 19,400 -1,680 Descending Indianapolis Center
12:00AM 37.4778 -84.3142 289° West 363 418 17,700 -1,620 Descending Indianapolis Center
12:01AM 37.5111 -84.4325 290° West 359 413 16,200 -1,260 Descending Indianapolis Center
12:06AM 37.7190 -85.0447 290° West 344 396 9,900 -1,020 Descending FlightAware ADS-B (KBRY)
12:07AM 37.7822 -85.1303 313° West 305 351 9,900 -120 Level FlightAware ADS-B (KBRY)
12:08AM 37.8341 -85.2012 313° West 260 299 9,700 -540 Descending FlightAware ADS-B (KBRY)
12:09AM 37.8829 -85.2697 312° West 264 304 8,900 -780 Descending FlightAware ADS-B (KBRY)
12:10AM 37.9438 -85.3537 313° West 254 292 8,000 -780 Descending FlightAware ADS-B (KBRY)
12:11AM 37.9908 -85.4195 312° West 253 291 7,200 -840 Descending FlightAware ADS-B (KBRY)
12:12AM 38.0359 -85.4823 312° West 249 287 6,400 -660 Descending FlightAware ADS-B (KBRY)
12:13AM 38.0819 -85.5492 311° West 247 284 5,900 -300 Descending FlightAware ADS-B (KBRY)
12:14AM 38.1419 -85.5956 329° Northwest 255 293 5,800 -480 Descending FlightAware ADS-B (KBRY)
12:15AM 38.2061 -85.6253 340° North 251 289 5,000 -840 Descending FlightAware ADS-B (KBRY)
12:16AM 38.2737 -85.6496 344° North 259 298 4,200 -600 Descending FlightAware ADS-B (KBRY)
12:17AM 38.3404 -85.6743 344° North 260 299 3,900 -180 Descending FlightAware ADS-B (KBRY)
12:18AM 38.4050 -85.6967 345° North 207 238 3,900  Level FlightAware ADS-B (KBRY)
12:19AM 38.4507 -85.7183 340° North 166 191 3,900  Level FlightAware ADS-B (KBRY)
12:20AM 38.4417 -85.7588 254° West 157 181 3,900  Level FlightAware ADS-B (KBRY)
12:21AM 38.3954 -85.7878 206° Southwest 158 182 3,900  Level FlightAware ADS-B (KBRY)
12:22AM 38.3717 -85.7944 206° Southwest 170 196 4,000 -360 Climbing Indianapolis Center
12:23AM 38.3250 -85.7786 165° South 174 200 3,400 -660 Descending Indianapolis Center
12:24AM 38.2764 -85.7614 164° South 172 198 2,700 -840 Descending Indianapolis Center
12:26AM 38.2167 -85.7333 160° South 123 142 1,100 -840 Descending Louisville TRACON